sensor_id;sensor_type;location;lat;lon;timestamp;P1;durP1;ratioP1;P2;durP2;ratioP2
10132;SDS011;5106;50.926;7.080;2022-09-09T00:01:08;2.25;;;1.45;;
10132;SDS011;5106;50.926;7.080;2022-09-09T00:09:28;2.63;;;1.23;;
10132;SDS011;5106;50.926;7.080;2022-09-09T00:12:10;5.68;;;1.40;;
10132;SDS011;5106;50.926;7.080;2022-09-09T00:14:45;2.25;;;1.20;;
10132;SDS011;5106;50.926;7.080;2022-09-09T00:17:19;4.78;;;1.50;;
10132;SDS011;5106;50.926;7.080;2022-09-09T00:19:56;3.15;;;1.33;;
10132;SDS011;5106;50.926;7.080;2022-09-09T00:22:28;2.33;;;1.15;;
10132;SDS011;5106;50.926;7.080;2022-09-09T00:25:02;4.38;;;1.35;;
10132;SDS011;5106;50.926;7.080;2022-09-09T00:27:40;4.53;;;1.33;;
10132;SDS011;5106;50.926;7.080;2022-09-09T00:33:30;2.30;;;1.17;;
10132;SDS011;5106;50.926;7.080;2022-09-09T00:36:14;5.32;;;1.20;;
10132;SDS011;5106;50.926;7.080;2022-09-09T00:38:37;2.95;;;1.17;;
10132;SDS011;5106;50.926;7.080;2022-09-09T00:52:26;2.13;;;0.90;;
10132;SDS011;5106;50.926;7.080;2022-09-09T00:57:34;4.85;;;1.02;;
10132;SDS011;5106;50.926;7.080;2022-09-09T01:11:23;3.08;;;1.00;;
10132;SDS011;5106;50.926;7.080;2022-09-09T01:16:45;2.47;;;1.10;;
10132;SDS011;5106;50.926;7.080;2022-09-09T01:19:15;2.38;;;1.10;;
10132;SDS011;5106;50.926;7.080;2022-09-09T01:21:54;4.18;;;1.30;;
10132;SDS011;5106;50.926;7.080;2022-09-09T01:24:27;4.15;;;1.45;;
10132;SDS011;5106;50.926;7.080;2022-09-09T01:27:04;3.80;;;1.33;;
10132;SDS011;5106;50.926;7.080;2022-09-09T01:29:32;3.42;;;1.25;;
10132;SDS011;5106;50.926;7.080;2022-09-09T01:32:02;5.00;;;1.35;;
10132;SDS011;5106;50.926;7.080;2022-09-09T01:34:48;2.38;;;1.02;;
10132;SDS011;5106;50.926;7.080;2022-09-09T01:37:15;4.03;;;1.38;;
10132;SDS011;5106;50.926;7.080;2022-09-09T01:39:41;4.40;;;1.23;;
10132;SDS011;5106;50.926;7.080;2022-09-09T01:42:09;1.92;;;1.17;;
10132;SDS011;5106;50.926;7.080;2022-09-09T01:44:39;5.97;;;1.30;;
10132;SDS011;5106;50.926;7.080;2022-09-09T01:47:04;8.30;;;1.27;;
10132;SDS011;5106;50.926;7.080;2022-09-09T01:49:31;3.58;;;1.23;;
10132;SDS011;5106;50.926;7.080;2022-09-09T01:52:01;2.92;;;1.17;;
10132;SDS011;5106;50.926;7.080;2022-09-09T01:54:28;6.43;;;1.20;;
10132;SDS011;5106;50.926;7.080;2022-09-09T01:59:39;5.45;;;1.50;;
10132;SDS011;5106;50.926;7.080;2022-09-09T02:08:03;2.47;;;1.00;;
10132;SDS011;5106;50.926;7.080;2022-09-09T02:10:32;4.03;;;1.30;;
10132;SDS011;5106;50.926;7.080;2022-09-09T02:13:12;2.22;;;1.10;;
10132;SDS011;5106;50.926;7.080;2022-09-09T02:15:42;0.95;;;0.88;;
10132;SDS011;5106;50.926;7.080;2022-09-09T02:18:15;2.63;;;0.90;;
10132;SDS011;5106;50.926;7.080;2022-09-09T02:20:48;3.53;;;1.10;;
10132;SDS011;5106;50.926;7.080;2022-09-09T02:23:15;3.40;;;1.30;;
10132;SDS011;5106;50.926;7.080;2022-09-09T02:25:41;4.85;;;1.35;;
10132;SDS011;5106;50.926;7.080;2022-09-09T02:28:09;2.72;;;1.02;;
10132;SDS011;5106;50.926;7.080;2022-09-09T02:30:37;1.48;;;1.00;;
10132;SDS011;5106;50.926;7.080;2022-09-09T02:33:06;3.63;;;1.30;;
10132;SDS011;5106;50.926;7.080;2022-09-09T02:35:35;4.07;;;1.23;;
10132;SDS011;5106;50.926;7.080;2022-09-09T02:38:03;1.98;;;1.10;;
10132;SDS011;5106;50.926;7.080;2022-09-09T02:40:32;3.40;;;1.13;;
10132;SDS011;5106;50.926;7.080;2022-09-09T02:42:58;4.22;;;1.23;;
10132;SDS011;5106;50.926;7.080;2022-09-09T02:45:27;2.30;;;1.10;;
10132;SDS011;5106;50.926;7.080;2022-09-09T02:48:34;4.40;;;1.40;;
10132;SDS011;5106;50.926;7.080;2022-09-09T02:51:06;3.28;;;1.08;;
10132;SDS011;5106;50.926;7.080;2022-09-09T02:53:49;2.83;;;1.20;;
10132;SDS011;5106;50.926;7.080;2022-09-09T02:56:29;2.67;;;1.13;;
10132;SDS011;5106;50.926;7.080;2022-09-09T02:58:58;1.75;;;1.10;;
10132;SDS011;5106;50.926;7.080;2022-09-09T03:01:24;2.45;;;1.10;;
10132;SDS011;5106;50.926;7.080;2022-09-09T03:03:50;4.00;;;1.48;;
10132;SDS011;5106;50.926;7.080;2022-09-09T03:06:15;4.75;;;1.48;;
10132;SDS011;5106;50.926;7.080;2022-09-09T03:08:41;2.67;;;1.15;;
10132;SDS011;5106;50.926;7.080;2022-09-09T03:11:07;3.75;;;1.63;;
10132;SDS011;5106;50.926;7.080;2022-09-09T03:13:34;2.72;;;1.20;;
10132;SDS011;5106;50.926;7.080;2022-09-09T03:15:59;3.00;;;1.20;;
10132;SDS011;5106;50.926;7.080;2022-09-09T03:18:25;2.72;;;1.08;;
10132;SDS011;5106;50.926;7.080;2022-09-09T03:20:51;4.38;;;1.20;;
10132;SDS011;5106;50.926;7.080;2022-09-09T03:23:18;2.88;;;1.10;;
10132;SDS011;5106;50.926;7.080;2022-09-09T03:25:51;1.67;;;1.10;;
10132;SDS011;5106;50.926;7.080;2022-09-09T03:28:17;4.95;;;1.10;;
10132;SDS011;5106;50.926;7.080;2022-09-09T03:30:43;2.45;;;1.10;;
10132;SDS011;5106;50.926;7.080;2022-09-09T03:33:09;3.45;;;1.10;;
10132;SDS011;5106;50.926;7.080;2022-09-09T03:35:34;3.97;;;1.20;;
10132;SDS011;5106;50.926;7.080;2022-09-09T03:38:00;3.10;;;1.40;;
10132;SDS011;5106;50.926;7.080;2022-09-09T03:40:25;6.65;;;1.50;;
10132;SDS011;5106;50.926;7.080;2022-09-09T03:42:51;5.13;;;1.40;;
10132;SDS011;5106;50.926;7.080;2022-09-09T03:45:17;2.05;;;1.10;;
10132;SDS011;5106;50.926;7.080;2022-09-09T03:47:43;3.13;;;1.33;;
10132;SDS011;5106;50.926;7.080;2022-09-09T03:50:09;3.67;;;1.40;;
10132;SDS011;5106;50.926;7.080;2022-09-09T03:52:36;4.22;;;1.15;;
10132;SDS011;5106;50.926;7.080;2022-09-09T03:55:03;3.42;;;1.17;;
10132;SDS011;5106;50.926;7.080;2022-09-09T03:57:30;5.20;;;1.25;;
10132;SDS011;5106;50.926;7.080;2022-09-09T03:59:56;3.58;;;1.17;;
10132;SDS011;5106;50.926;7.080;2022-09-09T04:02:22;4.32;;;1.20;;
10132;SDS011;5106;50.926;7.080;2022-09-09T04:04:48;3.97;;;1.15;;
10132;SDS011;5106;50.926;7.080;2022-09-09T04:07:14;1.88;;;1.00;;
10132;SDS011;5106;50.926;7.080;2022-09-09T04:09:39;2.05;;;1.13;;
10132;SDS011;5106;50.926;7.080;2022-09-09T04:12:05;3.20;;;1.20;;
10132;SDS011;5106;50.926;7.080;2022-09-09T04:14:31;4.32;;;1.30;;
10132;SDS011;5106;50.926;7.080;2022-09-09T04:16:57;7.13;;;1.75;;
10132;SDS011;5106;50.926;7.080;2022-09-09T04:19:24;2.58;;;1.10;;
10132;SDS011;5106;50.926;7.080;2022-09-09T04:21:50;2.22;;;1.08;;
10132;SDS011;5106;50.926;7.080;2022-09-09T04:24:16;2.55;;;1.27;;
10132;SDS011;5106;50.926;7.080;2022-09-09T04:26:42;3.58;;;1.45;;
10132;SDS011;5106;50.926;7.080;2022-09-09T04:29:08;2.72;;;1.10;;
10132;SDS011;5106;50.926;7.080;2022-09-09T04:31:34;4.15;;;1.38;;
10132;SDS011;5106;50.926;7.080;2022-09-09T04:34:00;2.45;;;1.08;;
10132;SDS011;5106;50.926;7.080;2022-09-09T04:36:30;3.40;;;1.30;;
10132;SDS011;5106;50.926;7.080;2022-09-09T04:38:57;7.90;;;1.58;;
10132;SDS011;5106;50.926;7.080;2022-09-09T04:41:23;4.05;;;1.52;;
10132;SDS011;5106;50.926;7.080;2022-09-09T04:43:49;6.22;;;1.38;;
10132;SDS011;5106;50.926;7.080;2022-09-09T04:46:15;4.15;;;1.23;;
10132;SDS011;5106;50.926;7.080;2022-09-09T04:48:43;5.65;;;1.70;;
10132;SDS011;5106;50.926;7.080;2022-09-09T04:51:10;3.92;;;1.40;;
10132;SDS011;5106;50.926;7.080;2022-09-09T04:53:38;4.97;;;1.50;;
10132;SDS011;5106;50.926;7.080;2022-09-09T04:56:15;4.40;;;1.52;;
10132;SDS011;5106;50.926;7.080;2022-09-09T04:58:41;2.95;;;1.23;;
10132;SDS011;5106;50.926;7.080;2022-09-09T05:03:42;3.88;;;1.10;;
10132;SDS011;5106;50.926;7.080;2022-09-09T05:06:11;5.32;;;1.13;;
10132;SDS011;5106;50.926;7.080;2022-09-09T05:08:42;5.38;;;1.45;;
10132;SDS011;5106;50.926;7.080;2022-09-09T05:13:48;3.17;;;1.23;;
10132;SDS011;5106;50.926;7.080;2022-09-09T05:16:14;2.83;;;1.13;;
10132;SDS011;5106;50.926;7.080;2022-09-09T05:18:41;2.58;;;1.25;;
10132;SDS011;5106;50.926;7.080;2022-09-09T05:21:11;3.85;;;1.38;;
10132;SDS011;5106;50.926;7.080;2022-09-09T05:23:37;3.50;;;1.25;;
10132;SDS011;5106;50.926;7.080;2022-09-09T05:26:04;2.88;;;1.33;;
10132;SDS011;5106;50.926;7.080;2022-09-09T05:28:31;5.40;;;1.40;;
10132;SDS011;5106;50.926;7.080;2022-09-09T05:31:00;6.65;;;1.48;;
10132;SDS011;5106;50.926;7.080;2022-09-09T05:33:33;2.08;;;0.95;;
10132;SDS011;5106;50.926;7.080;2022-09-09T05:36:00;3.05;;;1.42;;
10132;SDS011;5106;50.926;7.080;2022-09-09T05:38:30;4.78;;;1.15;;
10132;SDS011;5106;50.926;7.080;2022-09-09T05:40:58;3.95;;;1.35;;
10132;SDS011;5106;50.926;7.080;2022-09-09T05:43:24;3.65;;;1.40;;
10132;SDS011;5106;50.926;7.080;2022-09-09T05:48:29;2.45;;;1.10;;
10132;SDS011;5106;50.926;7.080;2022-09-09T05:50:56;7.28;;;1.48;;
10132;SDS011;5106;50.926;7.080;2022-09-09T05:53:21;5.13;;;1.30;;
10132;SDS011;5106;50.926;7.080;2022-09-09T05:55:47;3.30;;;1.00;;
10132;SDS011;5106;50.926;7.080;2022-09-09T05:58:13;5.40;;;1.35;;
10132;SDS011;5106;50.926;7.080;2022-09-09T06:00:40;4.03;;;1.30;;
10132;SDS011;5106;50.926;7.080;2022-09-09T06:03:05;3.55;;;1.52;;
10132;SDS011;5106;50.926;7.080;2022-09-09T06:05:31;4.57;;;1.30;;
10132;SDS011;5106;50.926;7.080;2022-09-09T06:07:59;4.95;;;1.63;;
10132;SDS011;5106;50.926;7.080;2022-09-09T06:10:24;4.13;;;1.50;;
10132;SDS011;5106;50.926;7.080;2022-09-09T06:12:52;2.78;;;1.20;;
10132;SDS011;5106;50.926;7.080;2022-09-09T06:15:17;4.82;;;1.40;;
10132;SDS011;5106;50.926;7.080;2022-09-09T06:17:43;3.97;;;1.60;;
10132;SDS011;5106;50.926;7.080;2022-09-09T06:20:10;5.70;;;1.60;;
10132;SDS011;5106;50.926;7.080;2022-09-09T06:22:36;4.35;;;1.25;;
10132;SDS011;5106;50.926;7.080;2022-09-09T06:25:04;2.15;;;1.27;;
10132;SDS011;5106;50.926;7.080;2022-09-09T06:27:29;3.33;;;1.33;;
10132;SDS011;5106;50.926;7.080;2022-09-09T06:29:55;3.70;;;1.27;;
10132;SDS011;5106;50.926;7.080;2022-09-09T06:32:21;3.33;;;1.55;;
10132;SDS011;5106;50.926;7.080;2022-09-09T06:34:46;4.28;;;1.40;;
10132;SDS011;5106;50.926;7.080;2022-09-09T06:37:14;3.78;;;1.25;;
10132;SDS011;5106;50.926;7.080;2022-09-09T06:39:40;2.63;;;1.33;;
10132;SDS011;5106;50.926;7.080;2022-09-09T06:42:06;4.30;;;1.73;;
10132;SDS011;5106;50.926;7.080;2022-09-09T06:44:34;4.70;;;1.40;;
10132;SDS011;5106;50.926;7.080;2022-09-09T06:47:00;2.60;;;1.25;;
10132;SDS011;5106;50.926;7.080;2022-09-09T06:49:25;3.83;;;1.77;;
10132;SDS011;5106;50.926;7.080;2022-09-09T06:51:51;7.13;;;1.63;;
10132;SDS011;5106;50.926;7.080;2022-09-09T06:54:17;3.60;;;1.45;;
10132;SDS011;5106;50.926;7.080;2022-09-09T06:56:43;3.40;;;1.40;;
10132;SDS011;5106;50.926;7.080;2022-09-09T06:59:10;3.38;;;1.40;;
10132;SDS011;5106;50.926;7.080;2022-09-09T07:01:40;5.10;;;1.40;;
10132;SDS011;5106;50.926;7.080;2022-09-09T07:04:08;3.45;;;1.27;;
10132;SDS011;5106;50.926;7.080;2022-09-09T07:06:42;4.22;;;1.40;;
10132;SDS011;5106;50.926;7.080;2022-09-09T07:09:11;4.78;;;1.50;;
10132;SDS011;5106;50.926;7.080;2022-09-09T07:14:04;3.95;;;1.40;;
10132;SDS011;5106;50.926;7.080;2022-09-09T07:16:30;3.90;;;1.25;;
10132;SDS011;5106;50.926;7.080;2022-09-09T07:18:58;3.60;;;1.40;;
10132;SDS011;5106;50.926;7.080;2022-09-09T07:21:25;4.22;;;1.65;;
10132;SDS011;5106;50.926;7.080;2022-09-09T07:23:52;4.20;;;1.30;;
10132;SDS011;5106;50.926;7.080;2022-09-09T07:26:20;4.35;;;1.25;;
10132;SDS011;5106;50.926;7.080;2022-09-09T07:28:48;4.43;;;1.40;;
10132;SDS011;5106;50.926;7.080;2022-09-09T07:31:18;3.78;;;1.35;;
10132;SDS011;5106;50.926;7.080;2022-09-09T07:33:49;5.57;;;1.40;;
10132;SDS011;5106;50.926;7.080;2022-09-09T07:36:18;4.40;;;1.55;;
10132;SDS011;5106;50.926;7.080;2022-09-09T07:38:50;4.20;;;1.40;;
10132;SDS011;5106;50.926;7.080;2022-09-09T07:41:21;3.45;;;1.30;;
10132;SDS011;5106;50.926;7.080;2022-09-09T07:43:48;8.18;;;1.55;;
10132;SDS011;5106;50.926;7.080;2022-09-09T07:46:15;4.68;;;1.60;;
10132;SDS011;5106;50.926;7.080;2022-09-09T07:48:49;6.40;;;1.65;;
10132;SDS011;5106;50.926;7.080;2022-09-09T07:51:17;4.15;;;1.30;;
10132;SDS011;5106;50.926;7.080;2022-09-09T07:53:52;5.22;;;1.60;;
10132;SDS011;5106;50.926;7.080;2022-09-09T07:56:25;4.70;;;1.35;;
10132;SDS011;5106;50.926;7.080;2022-09-09T07:58:52;3.28;;;1.10;;
10132;SDS011;5106;50.926;7.080;2022-09-09T08:01:22;3.90;;;1.15;;
10132;SDS011;5106;50.926;7.080;2022-09-09T08:03:52;3.47;;;1.40;;
10132;SDS011;5106;50.926;7.080;2022-09-09T08:06:26;5.45;;;1.40;;
10132;SDS011;5106;50.926;7.080;2022-09-09T08:08:54;5.28;;;1.70;;
10132;SDS011;5106;50.926;7.080;2022-09-09T08:11:20;3.78;;;1.50;;
10132;SDS011;5106;50.926;7.080;2022-09-09T08:13:46;4.00;;;1.40;;
10132;SDS011;5106;50.926;7.080;2022-09-09T08:18:39;4.80;;;1.50;;
10132;SDS011;5106;50.926;7.080;2022-09-09T08:21:06;3.83;;;1.50;;
10132;SDS011;5106;50.926;7.080;2022-09-09T08:23:33;4.65;;;1.50;;
10132;SDS011;5106;50.926;7.080;2022-09-09T08:26:06;4.43;;;1.50;;
10132;SDS011;5106;50.926;7.080;2022-09-09T08:28:35;2.72;;;1.13;;
10132;SDS011;5106;50.926;7.080;2022-09-09T08:31:08;4.22;;;1.60;;
10132;SDS011;5106;50.926;7.080;2022-09-09T08:33:38;4.82;;;1.35;;
10132;SDS011;5106;50.926;7.080;2022-09-09T08:36:05;4.78;;;1.55;;
10132;SDS011;5106;50.926;7.080;2022-09-09T08:38:31;3.50;;;1.52;;
10132;SDS011;5106;50.926;7.080;2022-09-09T08:41:02;4.43;;;1.67;;
10132;SDS011;5106;50.926;7.080;2022-09-09T08:43:39;3.08;;;1.27;;
10132;SDS011;5106;50.926;7.080;2022-09-09T08:46:12;3.45;;;1.48;;
10132;SDS011;5106;50.926;7.080;2022-09-09T08:49:02;4.88;;;1.50;;
10132;SDS011;5106;50.926;7.080;2022-09-09T08:51:42;3.53;;;1.48;;
10132;SDS011;5106;50.926;7.080;2022-09-09T08:54:08;4.80;;;1.73;;
10132;SDS011;5106;50.926;7.080;2022-09-09T08:56:35;3.42;;;1.33;;
10132;SDS011;5106;50.926;7.080;2022-09-09T08:59:01;4.75;;;1.20;;
10132;SDS011;5106;50.926;7.080;2022-09-09T09:09:50;4.85;;;1.40;;
10132;SDS011;5106;50.926;7.080;2022-09-09T09:12:24;2.97;;;1.05;;
10132;SDS011;5106;50.926;7.080;2022-09-09T09:14:51;2.72;;;1.05;;
10132;SDS011;5106;50.926;7.080;2022-09-09T09:19:44;2.03;;;0.90;;
10132;SDS011;5106;50.926;7.080;2022-09-09T09:22:18;4.75;;;1.40;;
10132;SDS011;5106;50.926;7.080;2022-09-09T09:27:24;5.10;;;1.50;;
10132;SDS011;5106;50.926;7.080;2022-09-09T09:29:59;3.55;;;1.27;;
10132;SDS011;5106;50.926;7.080;2022-09-09T09:32:26;4.32;;;1.20;;
10132;SDS011;5106;50.926;7.080;2022-09-09T09:34:58;3.97;;;1.20;;
10132;SDS011;5106;50.926;7.080;2022-09-09T09:37:27;5.10;;;1.30;;
10132;SDS011;5106;50.926;7.080;2022-09-09T09:39:55;4.07;;;1.08;;
10132;SDS011;5106;50.926;7.080;2022-09-09T09:42:20;3.72;;;1.20;;
10132;SDS011;5106;50.926;7.080;2022-09-09T09:44:47;3.78;;;1.13;;
10132;SDS011;5106;50.926;7.080;2022-09-09T09:47:17;3.47;;;1.02;;
10132;SDS011;5106;50.926;7.080;2022-09-09T09:49:52;4.22;;;1.20;;
10132;SDS011;5106;50.926;7.080;2022-09-09T09:52:24;3.25;;;1.08;;
10132;SDS011;5106;50.926;7.080;2022-09-09T09:54:52;3.13;;;1.35;;
10132;SDS011;5106;50.926;7.080;2022-09-09T09:57:22;2.83;;;0.90;;
10132;SDS011;5106;50.926;7.080;2022-09-09T10:02:49;2.78;;;1.02;;
10132;SDS011;5106;50.926;7.080;2022-09-09T10:07:46;4.35;;;1.10;;
10132;SDS011;5106;50.926;7.080;2022-09-09T10:10:20;4.65;;;1.30;;
10132;SDS011;5106;50.926;7.080;2022-09-09T10:17:54;3.00;;;1.20;;
10132;SDS011;5106;50.926;7.080;2022-09-09T10:20:40;3.50;;;1.10;;
10132;SDS011;5106;50.926;7.080;2022-09-09T10:25:55;2.40;;;1.05;;
10132;SDS011;5106;50.926;7.080;2022-09-09T10:36:39;1.55;;;0.80;;
10132;SDS011;5106;50.926;7.080;2022-09-09T10:44:38;3.15;;;1.13;;
10132;SDS011;5106;50.926;7.080;2022-09-09T10:47:20;4.15;;;1.10;;
10132;SDS011;5106;50.926;7.080;2022-09-09T10:52:38;2.90;;;1.10;;
10132;SDS011;5106;50.926;7.080;2022-09-09T10:55:18;2.80;;;0.95;;
10132;SDS011;5106;50.926;7.080;2022-09-09T10:57:49;3.88;;;1.20;;
10132;SDS011;5106;50.926;7.080;2022-09-09T11:00:37;2.80;;;1.20;;
10132;SDS011;5106;50.926;7.080;2022-09-09T11:03:06;2.83;;;0.93;;
10132;SDS011;5106;50.926;7.080;2022-09-09T11:05:44;3.50;;;1.10;;
10132;SDS011;5106;50.926;7.080;2022-09-09T11:08:17;2.85;;;0.90;;
10132;SDS011;5106;50.926;7.080;2022-09-09T11:10:48;1.83;;;0.80;;
10132;SDS011;5106;50.926;7.080;2022-09-09T11:16:05;3.92;;;1.00;;
10132;SDS011;5106;50.926;7.080;2022-09-09T11:18:37;3.78;;;1.02;;
10132;SDS011;5106;50.926;7.080;2022-09-09T11:21:07;3.42;;;1.05;;
10132;SDS011;5106;50.926;7.080;2022-09-09T11:23:42;3.65;;;1.08;;
10132;SDS011;5106;50.926;7.080;2022-09-09T11:26:13;3.75;;;1.23;;
10132;SDS011;5106;50.926;7.080;2022-09-09T11:31:43;2.35;;;1.00;;
10132;SDS011;5106;50.926;7.080;2022-09-09T11:39:51;2.58;;;0.82;;
10132;SDS011;5106;50.926;7.080;2022-09-09T11:42:33;3.55;;;1.00;;
10132;SDS011;5106;50.926;7.080;2022-09-09T11:45:08;2.35;;;1.13;;
10132;SDS011;5106;50.926;7.080;2022-09-09T11:47:36;2.45;;;1.10;;
10132;SDS011;5106;50.926;7.080;2022-09-09T11:52:41;2.00;;;0.90;;
10132;SDS011;5106;50.926;7.080;2022-09-09T11:55:25;1.80;;;0.90;;
10132;SDS011;5106;50.926;7.080;2022-09-09T11:58:05;3.22;;;1.08;;
10132;SDS011;5106;50.926;7.080;2022-09-09T12:00:35;2.25;;;1.00;;
10132;SDS011;5106;50.926;7.080;2022-09-09T12:03:02;4.15;;;1.33;;
10132;SDS011;5106;50.926;7.080;2022-09-09T12:05:51;2.88;;;0.98;;
10132;SDS011;5106;50.926;7.080;2022-09-09T12:08:19;1.52;;;0.88;;
10132;SDS011;5106;50.926;7.080;2022-09-09T12:10:55;3.28;;;1.10;;
10132;SDS011;5106;50.926;7.080;2022-09-09T12:13:25;2.45;;;1.00;;
10132;SDS011;5106;50.926;7.080;2022-09-09T12:18:37;3.42;;;1.25;;
10132;SDS011;5106;50.926;7.080;2022-09-09T12:23:53;1.90;;;0.80;;
10132;SDS011;5106;50.926;7.080;2022-09-09T12:26:37;2.70;;;1.10;;
10132;SDS011;5106;50.926;7.080;2022-09-09T12:39:56;2.63;;;1.13;;
10132;SDS011;5106;50.926;7.080;2022-09-09T12:42:24;1.92;;;1.10;;
10132;SDS011;5106;50.926;7.080;2022-09-09T12:45:01;2.97;;;1.10;;
10132;SDS011;5106;50.926;7.080;2022-09-09T12:50:29;1.70;;;0.93;;
10132;SDS011;5106;50.926;7.080;2022-09-09T12:52:58;2.88;;;1.08;;
10132;SDS011;5106;50.926;7.080;2022-09-09T12:55:35;3.20;;;0.85;;
10132;SDS011;5106;50.926;7.080;2022-09-09T12:58:03;3.63;;;0.90;;
10132;SDS011;5106;50.926;7.080;2022-09-09T13:00:31;1.95;;;1.02;;
10132;SDS011;5106;50.926;7.080;2022-09-09T13:02:59;3.03;;;1.17;;
10132;SDS011;5106;50.926;7.080;2022-09-09T13:05:35;1.58;;;0.88;;
10132;SDS011;5106;50.926;7.080;2022-09-09T13:08:04;2.65;;;0.75;;
10132;SDS011;5106;50.926;7.080;2022-09-09T13:10:33;2.30;;;1.02;;
10132;SDS011;5106;50.926;7.080;2022-09-09T13:13:15;2.30;;;1.10;;
10132;SDS011;5106;50.926;7.080;2022-09-09T13:16:03;3.22;;;1.00;;
10132;SDS011;5106;50.926;7.080;2022-09-09T13:18:33;3.17;;;0.75;;
10132;SDS011;5106;50.926;7.080;2022-09-09T13:21:00;4.38;;;1.00;;
10132;SDS011;5106;50.926;7.080;2022-09-09T13:23:28;5.22;;;1.30;;
10132;SDS011;5106;50.926;7.080;2022-09-09T13:25:56;3.03;;;0.90;;
10132;SDS011;5106;50.926;7.080;2022-09-09T13:28:24;3.03;;;0.73;;
10132;SDS011;5106;50.926;7.080;2022-09-09T13:30:59;2.58;;;0.90;;
10132;SDS011;5106;50.926;7.080;2022-09-09T13:33:34;1.83;;;0.70;;
10132;SDS011;5106;50.926;7.080;2022-09-09T13:36:06;2.53;;;0.90;;
10132;SDS011;5106;50.926;7.080;2022-09-09T13:38:40;1.40;;;0.85;;
10132;SDS011;5106;50.926;7.080;2022-09-09T13:41:36;2.72;;;0.60;;
10132;SDS011;5106;50.926;7.080;2022-09-09T13:44:25;1.20;;;0.70;;
10132;SDS011;5106;50.926;7.080;2022-09-09T13:47:27;1.17;;;0.60;;
10132;SDS011;5106;50.926;7.080;2022-09-09T13:49:47;2.08;;;0.80;;
10132;SDS011;5106;50.926;7.080;2022-09-09T13:52:13;1.15;;;0.63;;
10132;SDS011;5106;50.926;7.080;2022-09-09T13:54:42;2.50;;;0.80;;
10132;SDS011;5106;50.926;7.080;2022-09-09T13:57:26;3.70;;;0.90;;
10132;SDS011;5106;50.926;7.080;2022-09-09T13:59:52;2.53;;;0.60;;
10132;SDS011;5106;50.926;7.080;2022-09-09T14:02:20;1.33;;;0.65;;
10132;SDS011;5106;50.926;7.080;2022-09-09T14:04:48;1.75;;;0.77;;
10132;SDS011;5106;50.926;7.080;2022-09-09T14:07:16;1.85;;;0.80;;
10132;SDS011;5106;50.926;7.080;2022-09-09T14:09:43;2.97;;;0.88;;
10132;SDS011;5106;50.926;7.080;2022-09-09T14:12:10;4.68;;;0.85;;
10132;SDS011;5106;50.926;7.080;2022-09-09T14:14:37;3.28;;;0.98;;
10132;SDS011;5106;50.926;7.080;2022-09-09T14:17:03;2.88;;;1.20;;
10132;SDS011;5106;50.926;7.080;2022-09-09T14:19:28;2.95;;;0.70;;
10132;SDS011;5106;50.926;7.080;2022-09-09T14:21:55;1.08;;;0.80;;
10132;SDS011;5106;50.926;7.080;2022-09-09T14:24:21;1.13;;;0.65;;
10132;SDS011;5106;50.926;7.080;2022-09-09T14:26:47;2.00;;;0.80;;
10132;SDS011;5106;50.926;7.080;2022-09-09T14:29:12;3.30;;;0.90;;
10132;SDS011;5106;50.926;7.080;2022-09-09T14:31:38;3.65;;;0.70;;
10132;SDS011;5106;50.926;7.080;2022-09-09T14:34:04;2.13;;;0.73;;
10132;SDS011;5106;50.926;7.080;2022-09-09T14:36:31;1.42;;;0.90;;
10132;SDS011;5106;50.926;7.080;2022-09-09T14:38:57;0.60;;;0.50;;
10132;SDS011;5106;50.926;7.080;2022-09-09T14:41:23;1.50;;;0.70;;
10132;SDS011;5106;50.926;7.080;2022-09-09T14:43:50;2.53;;;0.65;;
10132;SDS011;5106;50.926;7.080;2022-09-09T14:46:17;1.10;;;0.55;;
10132;SDS011;5106;50.926;7.080;2022-09-09T14:48:44;0.80;;;0.60;;
10132;SDS011;5106;50.926;7.080;2022-09-09T14:53:44;2.72;;;0.98;;
10132;SDS011;5106;50.926;7.080;2022-09-09T14:56:16;1.45;;;0.70;;
10132;SDS011;5106;50.926;7.080;2022-09-09T14:58:43;2.13;;;0.68;;
10132;SDS011;5106;50.926;7.080;2022-09-09T15:01:11;3.35;;;0.70;;
10132;SDS011;5106;50.926;7.080;2022-09-09T15:03:38;2.25;;;0.80;;
10132;SDS011;5106;50.926;7.080;2022-09-09T15:06:09;1.10;;;0.80;;
10132;SDS011;5106;50.926;7.080;2022-09-09T15:08:38;2.03;;;0.88;;
10132;SDS011;5106;50.926;7.080;2022-09-09T15:11:06;2.95;;;0.82;;
10132;SDS011;5106;50.926;7.080;2022-09-09T15:13:33;2.95;;;0.93;;
10132;SDS011;5106;50.926;7.080;2022-09-09T15:16:06;3.50;;;1.20;;
10132;SDS011;5106;50.926;7.080;2022-09-09T15:18:34;1.38;;;0.90;;
10132;SDS011;5106;50.926;7.080;2022-09-09T15:21:01;3.15;;;1.08;;
10132;SDS011;5106;50.926;7.080;2022-09-09T15:23:31;1.45;;;0.90;;
10132;SDS011;5106;50.926;7.080;2022-09-09T15:25:57;3.80;;;1.15;;
10132;SDS011;5106;50.926;7.080;2022-09-09T15:28:23;2.03;;;1.00;;
10132;SDS011;5106;50.926;7.080;2022-09-09T15:30:49;3.33;;;0.98;;
10132;SDS011;5106;50.926;7.080;2022-09-09T15:33:17;2.45;;;0.77;;
10132;SDS011;5106;50.926;7.080;2022-09-09T15:35:43;2.60;;;1.17;;
10132;SDS011;5106;50.926;7.080;2022-09-09T15:38:10;2.83;;;1.23;;
10132;SDS011;5106;50.926;7.080;2022-09-09T15:40:38;7.07;;;1.70;;
10132;SDS011;5106;50.926;7.080;2022-09-09T15:43:06;4.05;;;1.25;;
10132;SDS011;5106;50.926;7.080;2022-09-09T15:45:33;2.03;;;0.90;;
10132;SDS011;5106;50.926;7.080;2022-09-09T15:47:59;4.13;;;1.45;;
10132;SDS011;5106;50.926;7.080;2022-09-09T15:50:25;3.05;;;1.20;;
10132;SDS011;5106;50.926;7.080;2022-09-09T15:52:51;5.75;;;1.45;;
10132;SDS011;5106;50.926;7.080;2022-09-09T15:55:18;5.15;;;1.40;;
10132;SDS011;5106;50.926;7.080;2022-09-09T15:57:45;1.50;;;1.00;;
10132;SDS011;5106;50.926;7.080;2022-09-09T16:00:11;3.42;;;1.30;;
10132;SDS011;5106;50.926;7.080;2022-09-09T16:02:38;1.67;;;0.70;;
10132;SDS011;5106;50.926;7.080;2022-09-09T16:05:03;1.40;;;0.63;;
10132;SDS011;5106;50.926;7.080;2022-09-09T16:07:30;1.55;;;0.68;;
10132;SDS011;5106;50.926;7.080;2022-09-09T16:09:55;2.15;;;0.75;;
10132;SDS011;5106;50.926;7.080;2022-09-09T16:12:21;1.20;;;0.60;;
10132;SDS011;5106;50.926;7.080;2022-09-09T16:14:47;1.65;;;0.90;;
10132;SDS011;5106;50.926;7.080;2022-09-09T16:17:12;2.33;;;0.85;;
10132;SDS011;5106;50.926;7.080;2022-09-09T16:19:39;3.33;;;1.10;;
10132;SDS011;5106;50.926;7.080;2022-09-09T16:22:05;2.33;;;1.15;;
10132;SDS011;5106;50.926;7.080;2022-09-09T16:24:31;2.45;;;1.00;;
10132;SDS011;5106;50.926;7.080;2022-09-09T16:26:57;4.05;;;1.05;;
10132;SDS011;5106;50.926;7.080;2022-09-09T16:29:23;2.40;;;1.02;;
10132;SDS011;5106;50.926;7.080;2022-09-09T16:31:52;2.50;;;1.00;;
10132;SDS011;5106;50.926;7.080;2022-09-09T16:34:18;3.10;;;1.58;;
10132;SDS011;5106;50.926;7.080;2022-09-09T16:36:44;4.40;;;1.40;;
10132;SDS011;5106;50.926;7.080;2022-09-09T16:39:12;3.10;;;1.58;;
10132;SDS011;5106;50.926;7.080;2022-09-09T16:41:46;4.13;;;1.77;;
10132;SDS011;5106;50.926;7.080;2022-09-09T16:44:13;3.90;;;1.60;;
10132;SDS011;5106;50.926;7.080;2022-09-09T16:46:41;5.35;;;1.98;;
10132;SDS011;5106;50.926;7.080;2022-09-09T16:49:12;3.63;;;1.73;;
10132;SDS011;5106;50.926;7.080;2022-09-09T16:51:40;3.35;;;1.52;;
10132;SDS011;5106;50.926;7.080;2022-09-09T16:54:07;4.03;;;1.38;;
10132;SDS011;5106;50.926;7.080;2022-09-09T16:56:34;3.03;;;1.77;;
10132;SDS011;5106;50.926;7.080;2022-09-09T16:59:03;3.08;;;1.77;;
10132;SDS011;5106;50.926;7.080;2022-09-09T17:01:33;2.72;;;1.30;;
10132;SDS011;5106;50.926;7.080;2022-09-09T17:04:02;2.50;;;1.15;;
10132;SDS011;5106;50.926;7.080;2022-09-09T17:06:30;3.08;;;1.30;;
10132;SDS011;5106;50.926;7.080;2022-09-09T17:09:00;3.40;;;1.25;;
10132;SDS011;5106;50.926;7.080;2022-09-09T17:11:27;2.92;;;1.35;;
10132;SDS011;5106;50.926;7.080;2022-09-09T17:13:54;3.55;;;1.45;;
10132;SDS011;5106;50.926;7.080;2022-09-09T17:16:22;3.03;;;1.27;;
10132;SDS011;5106;50.926;7.080;2022-09-09T17:18:53;3.38;;;1.88;;
10132;SDS011;5106;50.926;7.080;2022-09-09T17:21:20;2.83;;;1.50;;
10132;SDS011;5106;50.926;7.080;2022-09-09T17:23:48;4.60;;;1.55;;
10132;SDS011;5106;50.926;7.080;2022-09-09T17:26:15;3.63;;;1.52;;
10132;SDS011;5106;50.926;7.080;2022-09-09T17:28:42;2.40;;;1.75;;
10132;SDS011;5106;50.926;7.080;2022-09-09T17:31:10;5.75;;;1.80;;